CheckWX is a tool to help pilots better visualize weather data.  It is not intended as a substitute for an official pre-flight weather briefing.

12:43:59 UTC

EPZG METAR
Zielona Góra-Babimost Airport
Babimost, Poland
Current

14 mins ago

EPZG 181230Z 15004KT 120V180 CAVOK 14/00 Q1020
Observed
Feb-18 @ 12:30 UTC
Wind
  • 150° at 4 KTS
Visibility
10,000+ meters
Flight Rules
VFR
Cloud Levels
  • Clear skies
Temperature
14°C / 57°F
Dewpoint
C / 32°F
Humidity
39%
Altimeter
30.12" Hg
Pressure
1019.92 hPa
Previous

44 mins ago

EPZG 181200Z 24003KT 190V290 CAVOK 13/00 Q1020
Observed
Feb-18 @ 12:00 UTC
Wind
  • 240° at 3 KTS
Visibility
10,000+ meters
Flight Rules
VFR
Cloud Levels
  • Clear skies
Temperature
13°C / 55°F
Dewpoint
C / 32°F
Humidity
41%
Altimeter
30.12" Hg
Pressure
1019.92 hPa
Previous

1 hour ago

EPZG 181130Z 24003KT 200V280 CAVOK 13/00 Q1020
Observed
Feb-18 @ 11:30 UTC
Wind
  • 240° at 3 KTS
Visibility
10,000+ meters
Flight Rules
VFR
Cloud Levels
  • Clear skies
Temperature
13°C / 55°F
Dewpoint
C / 32°F
Humidity
41%
Altimeter
30.12" Hg
Pressure
1019.92 hPa